WetterOnline ( http://www.wetteronline.de )

Wetter aktuell Hausen

Aktuelles Wetter: Messstetten (900m)

6-stündlich | Neueste Meldungen
Ortszeit Temperatur Wetter
Do, 21.03. 7:00 -0.0° C wolkenlos
Do, 21.03. 1:00 0.4° C wolkenlos
Mi, 20.03. 19:00 0.6° C wolkenlos
Mi, 20.03. 13:00 5.6° C wolkenlos
Mi, 20.03. 7:00 -3.1° C wolkenlos
Mi, 20.03. 1:00 -2.9° C wolkenlos
Di, 19.03. 19:00 0.7° C wolkenlos
Di, 19.03. 13:00 3.7° C wolkig
Ortszeit Temperatur Wetter
Do, 21.03. 12:00 7.3° C leicht bewölkt
Do, 21.03. 11:50 7.3° C wolkig
Do, 21.03. 11:40 7.2° C wolkig
Do, 21.03. 11:30 7.1° C leicht bewölkt
Do, 21.03. 11:20 7.1° C leicht bewölkt
Do, 21.03. 11:10 6.1° C leicht bewölkt
Do, 21.03. 11:00 5.9° C leicht bewölkt
Do, 21.03. 10:30 4.9° C leicht bewölkt
Do, 21.03. 10:00 4.4° C wolkenlos
Do, 21.03. 9:30 3.5° C wolkenlos
Do, 21.03. 9:00 3.0° C wolkenlos
Ortszeit Relative Feuchte Sichtweite
Do, 21.03. 7:00 59% 40 km
Do, 21.03. 1:00 61% 40 km
Mi, 20.03. 19:00 67% 45 km
Mi, 20.03. 13:00 44% 27 km
Mi, 20.03. 7:00 78% 27 km
Mi, 20.03. 1:00 78% 30 km
Di, 19.03. 19:00 67% 50 km
Di, 19.03. 13:00 67% 35 km
Ortszeit Relative Feuchte Sichtweite
Do, 21.03. 12:00 37% 22 km
Do, 21.03. 11:50 37% -
Do, 21.03. 11:40 36% -
Do, 21.03. 11:30 39% 20 km
Do, 21.03. 11:20 39% -
Do, 21.03. 11:10 40% -
Do, 21.03. 11:00 40% 23 km
Do, 21.03. 10:30 43% 18 km
Do, 21.03. 10:00 46% 21 km
Do, 21.03. 9:30 49% 28 km
Do, 21.03. 9:00 52% 27 km
Ortszeit Niederschlagsmenge Niederschlagsart
Do, 21.03. 7:00 0.0 l/m2 in 12 Std. -
Do, 21.03. 1:00 0.0 l/m2 in 6 Std. -
Mi, 20.03. 19:00 0.0 l/m2 in 12 Std. -
Mi, 20.03. 13:00 0.0 l/m2 in 6 Std. -
Mi, 20.03. 7:00 0.0 l/m2 in 12 Std. -
Mi, 20.03. 1:00 0.0 l/m2 in 6 Std. -
Di, 19.03. 19:00 0.1 l/m2 in 12 Std. -
Di, 19.03. 13:00 0.1 l/m2 in 6 Std. Schnee, Niederschlag
Ortszeit Niederschlagsmenge Niederschlagsart
Do, 21.03. 12:00 0.0 l/m2 in 1 Std. -
Do, 21.03. 11:50 keine Meldung -
Do, 21.03. 11:40 keine Meldung -
Do, 21.03. 11:30 0.0 l/m2 in 1 Std. -
Do, 21.03. 11:20 keine Meldung -
Do, 21.03. 11:10 keine Meldung -
Do, 21.03. 11:00 0.0 l/m2 in 1 Std. -
Do, 21.03. 10:30 0.0 l/m2 in 1 Std. -
Do, 21.03. 10:00 0.0 l/m2 in 1 Std. -
Do, 21.03. 9:30 0.0 l/m2 in 1 Std. -
Do, 21.03. 9:00 0.0 l/m2 in 1 Std. -
Ortszeit Stärke Spitze Richtung
km/h Bft. km/h Grad Sektor
Do, 21.03. 7:00 18 3 36 90° O
Do, 21.03. 1:00 11 2 18 90° O
Mi, 20.03. 19:00 7 2 32 90° O
Mi, 20.03. 13:00 7 2 29 40° NO
Mi, 20.03. 7:00 6 1 9 90° O
Mi, 20.03. 1:00 4 1 11 90° O
Di, 19.03. 19:00 2 1 31 20° N
Di, 19.03. 13:00 11 2 19 310° NW
Ortszeit Stärke Spitze Richtung
km/h Bft. km/h Grad Sektor
Do, 21.03. 12:00 24 4 41 80° O
Do, 21.03. 11:50 24 4 - 80° O
Do, 21.03. 11:40 24 4 - 80° O
Do, 21.03. 11:30 22 4 40 70° O
Do, 21.03. 11:20 22 4 - 70° O
Do, 21.03. 11:10 26 4 - 70° O
Do, 21.03. 11:00 29 5 47 70° O
Do, 21.03. 10:30 32 5 47 80° O
Do, 21.03. 10:00 25 4 47 80° O
Do, 21.03. 9:30 22 4 40 80° O
Do, 21.03. 9:00 25 4 40 80° O
Ortszeit Untergrenze Bedeckung Gattung
total tief tief mittel hoch
Do, 21.03. 7:00 9000 m 0/8 0/8 - - -
Do, 21.03. 1:00 - 0/8 0/8 - - -
Mi, 20.03. 19:00 - 0/8 0/8 - - -
Mi, 20.03. 13:00 - 0/8 0/8 - - -
Mi, 20.03. 7:00 - 0/8 0/8 - - -
Mi, 20.03. 1:00 - 0/8 0/8 - - -
Di, 19.03. 19:00 - 0/8 0/8 - - -
Di, 19.03. 13:00 810 m 5/8 5/8 - - -
Ortszeit Bedeckungsgrad in Achtel und Wolkenuntergrenze
Do, 21.03. 12:00 8(10500m)
Do, 21.03. 11:50 8(10500m)
Do, 21.03. 11:40 4(10500m) 8(10500m)
Do, 21.03. 11:30 6(10500m) 7(10500m)
Do, 21.03. 11:20 6(10500m)
Do, 21.03. 11:10 4(10500m)
Do, 21.03. 11:00 3(10500m)
Do, 21.03. 10:30 6(10500m)
Do, 21.03. 10:00 1(10500m)
Do, 21.03. 9:30 keine Wolken
Do, 21.03. 9:00 keine Wolken
Ortszeit Stationsdruck (hPa) Tendenz (hPa in 3 Std.)
Do, 21.03. 7:00 925 - 0,4
Do, 21.03. 1:00 927 - 0,6
Mi, 20.03. 19:00 927 + 0,8
Mi, 20.03. 13:00 927 + 0,4
Mi, 20.03. 7:00 925 + 0,9
Mi, 20.03. 1:00 925 + 0,7
Di, 19.03. 19:00 923 + 1,5
Di, 19.03. 13:00 921 + 0,7
Ortszeit Stationsdruck (hPa) Tendenz (hPa in 3 Std.)
Do, 21.03. 12:00 926 + 0,1
Do, 21.03. 11:50 926 keine Meldung
Do, 21.03. 11:40 926 keine Meldung
Do, 21.03. 11:30 926 + 0,4
Do, 21.03. 11:20 926 keine Meldung
Do, 21.03. 11:10 926 keine Meldung
Do, 21.03. 11:00 926 + 0,4
Do, 21.03. 10:30 926 + 0,3
Do, 21.03. 10:00 926 + 0,7
Do, 21.03. 9:30 926 + 0,6
Do, 21.03. 9:00 926 + 0,5
Ortszeit Schneehöhe (cm)
Do, 21.03. 7:00 0
Do, 21.03. 1:00 0
Mi, 20.03. 19:00 0
Mi, 20.03. 13:00 0
Mi, 20.03. 7:00 0
Mi, 20.03. 1:00 0
Di, 19.03. 19:00 0
Di, 19.03. 13:00 0
Ortszeit Schneehöhe (cm)
Do, 21.03. 12:00 0
Do, 21.03. 11:50 0
Do, 21.03. 11:40 0
Do, 21.03. 11:30 0
Do, 21.03. 11:20 0
Do, 21.03. 11:10 0
Do, 21.03. 11:00 0
Do, 21.03. 10:30 0
Do, 21.03. 10:00 0
Do, 21.03. 9:30 0
Do, 21.03. 9:00 0
Link zu dieser Seite / Seite empfehlen

Das Wetter in ...